createdAt,value
2023-05-09T00:01:20.658Z,77.68
2023-05-09T00:03:47.838Z,75.18
2023-05-09T00:06:15.457Z,84.93
2023-05-09T00:08:42.215Z,81.93
2023-05-09T00:11:09.039Z,81.95
2023-05-09T00:13:37.381Z,88.20
2023-05-09T00:16:05.906Z,81.00
2023-05-09T00:18:34.032Z,83.45
2023-05-09T00:21:02.386Z,75.05
2023-05-09T00:23:29.065Z,84.90
2023-05-09T00:25:55.897Z,82.30
2023-05-09T00:28:22.576Z,76.15
2023-05-09T00:30:49.249Z,74.43
2023-05-09T00:33:16.348Z,74.68
2023-05-09T00:35:43.006Z,77.72
2023-05-09T00:38:09.921Z,80.22
2023-05-09T00:40:36.638Z,86.82
2023-05-09T00:43:03.423Z,67.40
2023-05-09T00:45:30.953Z,68.22
2023-05-09T00:47:58.275Z,68.78
2023-05-09T00:50:25.023Z,67.97
2023-05-09T00:52:51.872Z,70.65
2023-05-09T00:55:19.396Z,62.85
2023-05-09T00:57:46.151Z,66.55
2023-05-09T01:00:13.671Z,70.88
2023-05-09T01:02:46.615Z,66.80
2023-05-09T01:05:14.363Z,66.90
2023-05-09T01:07:58.528Z,72.25
2023-05-09T01:10:42.237Z,81.65
2023-05-09T01:13:30.542Z,73.88
2023-05-09T01:16:31.104Z,75.13
2023-05-09T01:19:08.266Z,70.22
2023-05-09T01:21:35.450Z,71.13
2023-05-09T01:24:25.342Z,69.55
2023-05-09T01:27:10.331Z,73.82
2023-05-09T01:29:46.967Z,76.50
2023-05-09T01:32:22.769Z,74.97
2023-05-09T01:34:54.346Z,92.35
2023-05-09T01:37:29.302Z,76.28
2023-05-09T01:39:59.964Z,83.32
2023-05-09T01:42:30.168Z,73.10
2023-05-09T01:44:58.694Z,72.57
2023-05-09T01:47:26.252Z,69.13
2023-05-09T01:49:55.018Z,70.78
2023-05-09T01:52:23.215Z,66.97
2023-05-09T01:54:51.445Z,73.88
2023-05-09T01:57:19.351Z,66.43
2023-05-09T02:02:13.702Z,65.07
2023-05-09T02:07:08.620Z,68.60
2023-05-09T02:09:35.845Z,70.35
2023-05-09T02:12:04.512Z,71.53
2023-05-09T02:14:31.941Z,68.72
2023-05-09T02:17:06.151Z,73.80
2023-05-09T02:19:36.194Z,62.78
2023-05-09T02:22:04.681Z,68.13
2023-05-09T02:24:34.287Z,63.08
2023-05-09T02:27:06.020Z,66.60
2023-05-09T02:29:41.656Z,67.78
2023-05-09T02:32:11.952Z,62.95
2023-05-09T02:34:40.993Z,66.15
2023-05-09T02:37:08.532Z,62.60
2023-05-09T02:39:35.987Z,67.60
2023-05-09T02:44:34.036Z,59.55
2023-05-09T02:47:05.532Z,62.58
2023-05-09T02:49:32.905Z,68.45
2023-05-09T02:52:01.513Z,64.85
2023-05-09T02:54:28.567Z,70.60
2023-05-09T02:56:55.412Z,65.72
2023-05-09T02:59:22.430Z,61.55
2023-05-09T03:01:49.655Z,55.20
2023-05-09T03:04:18.593Z,43.85
2023-05-09T03:06:45.576Z,45.40
2023-05-09T03:09:13.544Z,43.60
2023-05-09T03:11:40.543Z,39.47
2023-05-09T03:14:08.450Z,38.30
2023-05-09T03:16:35.293Z,55.60
2023-05-09T03:19:03.119Z,70.72
2023-05-09T03:21:30.083Z,65.65
2023-05-09T03:23:56.750Z,65.25
2023-05-09T03:26:23.443Z,66.55
2023-05-09T03:28:50.237Z,72.82
2023-05-09T03:31:16.952Z,65.85
2023-05-09T03:33:43.698Z,70.07
2023-05-09T03:36:10.480Z,69.45
2023-05-09T03:38:39.589Z,71.93
2023-05-09T03:41:06.316Z,69.45
2023-05-09T03:43:33.175Z,64.60
2023-05-09T03:45:59.854Z,65.10
2023-05-09T03:48:27.086Z,66.97
2023-05-09T03:50:53.849Z,66.85
2023-05-09T03:53:22.059Z,64.57
2023-05-09T03:55:50.260Z,70.47
2023-05-09T03:58:19.237Z,75.97
2023-05-09T04:00:46.126Z,69.35
2023-05-09T04:03:19.386Z,65.88
2023-05-09T04:05:47.744Z,63.67
2023-05-09T04:08:25.727Z,73.35
2023-05-09T04:13:19.556Z,54.10
2023-05-09T04:15:46.506Z,51.83
2023-05-09T04:18:13.487Z,46.20
2023-05-09T04:20:40.180Z,47.58
2023-05-09T04:23:06.951Z,50.20
2023-05-09T04:25:34.464Z,46.83
2023-05-09T04:28:02.312Z,43.05
2023-05-09T04:30:29.514Z,48.45
2023-05-09T04:32:56.910Z,52.05
2023-05-09T04:35:23.834Z,52.92
2023-05-09T04:37:52.841Z,48.15
2023-05-09T04:40:19.594Z,46.10
2023-05-09T04:42:53.600Z,48.50
2023-05-09T04:45:23.577Z,42.60
2023-05-09T04:47:51.310Z,43.75
2023-05-09T04:50:18.027Z,44.65
2023-05-09T04:52:44.693Z,48.75
2023-05-09T04:55:11.509Z,47.03
2023-05-09T04:57:43.005Z,33.67
2023-05-09T05:00:11.858Z,23.98
2023-05-09T05:02:39.271Z,20.92
2023-05-09T05:05:12.016Z,14.68
2023-05-09T05:07:41.444Z,11.05
2023-05-09T05:10:10.316Z,10.55
2023-05-09T05:12:39.270Z,6.68
2023-05-09T05:15:09.509Z,6.32
2023-05-09T05:20:06.608Z,8.65
2023-05-09T05:22:33.409Z,6.13
2023-05-09T05:25:00.167Z,8.63
2023-05-09T05:27:27.171Z,5.80
2023-05-09T05:29:53.859Z,5.43
2023-05-09T05:32:21.006Z,7.13
2023-05-09T05:34:48.058Z,9.95
2023-05-09T05:37:14.788Z,16.65
2023-05-09T05:39:42.468Z,20.05
2023-05-09T05:42:09.310Z,15.38
2023-05-09T05:44:36.970Z,7.15
2023-05-09T05:47:04.153Z,7.30
2023-05-09T05:49:31.248Z,11.02
2023-05-09T05:51:58.160Z,7.43
2023-05-09T05:54:25.959Z,7.45
2023-05-09T05:56:54.250Z,12.60
2023-05-09T05:59:21.073Z,10.05
2023-05-09T06:01:49.327Z,11.93
2023-05-09T06:04:16.846Z,7.35
2023-05-09T06:06:43.808Z,8.10
2023-05-09T06:09:10.595Z,7.43
2023-05-09T06:11:37.428Z,9.15
2023-05-09T06:14:04.113Z,13.63
2023-05-09T06:16:31.042Z,21.27
2023-05-09T06:18:57.738Z,23.65
2023-05-09T06:21:24.450Z,26.67
2023-05-09T06:24:05.956Z,17.48
2023-05-09T06:26:35.589Z,24.02
2023-05-09T06:31:29.719Z,29.85
2023-05-09T06:36:23.001Z,33.85
2023-05-09T06:38:49.646Z,33.60
2023-05-09T06:41:16.273Z,33.92
2023-05-09T06:43:42.951Z,34.85
2023-05-09T06:46:09.633Z,34.55
2023-05-09T06:48:36.295Z,32.67
2023-05-09T06:51:03.058Z,32.97
2023-05-09T06:53:29.700Z,29.65
2023-05-09T06:55:56.400Z,30.40
2023-05-09T06:58:23.465Z,29.65
2023-05-09T07:00:51.252Z,28.83
2023-05-09T07:03:17.968Z,27.52
2023-05-09T07:05:44.684Z,24.73
2023-05-09T07:08:11.430Z,24.27
2023-05-09T07:10:38.781Z,29.30
2023-05-09T07:13:06.966Z,34.45
2023-05-09T07:15:41.245Z,26.08
2023-05-09T07:18:09.585Z,22.52
2023-05-09T07:20:36.511Z,23.23
2023-05-09T07:23:04.074Z,29.73
2023-05-09T07:25:30.840Z,25.33
2023-05-09T07:27:57.633Z,23.38
2023-05-09T07:30:24.930Z,23.98
2023-05-09T07:32:51.988Z,19.73
2023-05-09T07:37:45.967Z,21.92
2023-05-09T07:40:13.478Z,32.33
2023-05-09T07:42:40.608Z,22.27
2023-05-09T07:45:07.773Z,23.33
2023-05-09T07:47:34.509Z,19.67
2023-05-09T07:50:01.333Z,19.63
2023-05-09T07:52:27.986Z,23.00
2023-05-09T07:54:54.751Z,20.15
2023-05-09T07:57:21.490Z,22.88
2023-05-09T07:59:48.283Z,16.98
2023-05-09T08:02:14.997Z,16.55
2023-05-09T08:04:41.983Z,17.38
2023-05-09T08:07:09.109Z,21.13
2023-05-09T08:12:02.955Z,16.83
2023-05-09T08:14:29.798Z,16.40
2023-05-09T08:16:56.512Z,26.27
2023-05-09T08:19:26.008Z,16.10
2023-05-09T08:21:53.224Z,16.02
2023-05-09T08:24:20.231Z,19.98
2023-05-09T08:26:47.015Z,15.63
2023-05-09T08:29:13.662Z,17.25
2023-05-09T08:31:40.862Z,13.05
2023-05-09T08:36:34.393Z,15.75
2023-05-09T08:39:01.172Z,14.10
2023-05-09T08:41:28.096Z,15.63
2023-05-09T08:43:55.387Z,16.35
2023-05-09T08:48:56.780Z,15.68
2023-05-09T08:51:23.764Z,13.15
2023-05-09T08:53:51.594Z,15.07
2023-05-09T08:56:18.912Z,16.95
2023-05-09T08:58:45.692Z,14.65
2023-05-09T09:01:14.287Z,10.20
2023-05-09T09:03:47.490Z,11.50
2023-05-09T09:06:14.402Z,12.95
2023-05-09T09:08:42.037Z,15.05
2023-05-09T09:11:13.107Z,17.88
2023-05-09T09:13:41.753Z,16.20
2023-05-09T09:16:20.087Z,12.60
2023-05-09T09:18:47.725Z,10.32
2023-05-09T09:21:19.262Z,13.73
2023-05-09T09:23:47.555Z,8.65
2023-05-09T09:26:14.943Z,12.25
2023-05-09T09:28:42.489Z,9.55
2023-05-09T09:31:23.319Z,6.40
2023-05-09T09:33:51.696Z,11.05
2023-05-09T09:36:36.464Z,8.38
2023-05-09T09:39:05.434Z,6.88
2023-05-09T09:41:37.984Z,11.40
2023-05-09T09:44:08.295Z,9.90
2023-05-09T09:46:50.517Z,6.55
2023-05-09T09:49:21.950Z,6.43
2023-05-09T09:51:56.660Z,8.52
2023-05-09T09:54:27.121Z,6.75
2023-05-09T09:56:54.786Z,8.05
2023-05-09T09:59:24.942Z,6.45
2023-05-09T10:02:00.489Z,6.85
2023-05-09T10:04:32.072Z,7.13
2023-05-09T10:07:04.456Z,6.18
2023-05-09T10:09:31.806Z,6.00
2023-05-09T10:12:03.199Z,4.63
2023-05-09T10:14:33.501Z,6.95
2023-05-09T10:17:03.846Z,2.30
2023-05-09T10:19:31.782Z,4.50
2023-05-09T10:22:04.929Z,6.03
2023-05-09T10:24:41.973Z,5.15
2023-05-09T10:27:13.037Z,3.90
2023-05-09T10:29:47.647Z,3.70
2023-05-09T10:32:23.392Z,4.45
2023-05-09T10:34:54.509Z,3.80
2023-05-09T10:37:22.574Z,2.40
2023-05-09T10:39:53.748Z,3.22
2023-05-09T10:42:20.822Z,3.45
2023-05-09T10:47:15.472Z,1.98
2023-05-09T10:49:44.516Z,4.18
2023-05-09T10:52:11.757Z,1.77
2023-05-09T10:54:38.485Z,3.05
2023-05-09T10:57:08.823Z,3.40
2023-05-09T10:59:43.324Z,2.38
2023-05-09T11:02:14.459Z,1.83
2023-05-09T11:04:41.418Z,1.70
2023-05-09T11:07:26.962Z,2.13
2023-05-09T11:10:10.149Z,2.97
2023-05-09T11:12:58.249Z,1.98
2023-05-09T11:15:26.554Z,1.60
2023-05-09T11:18:07.804Z,1.27
2023-05-09T11:20:35.829Z,3.72
2023-05-09T11:23:05.023Z,2.42
2023-05-09T11:25:31.695Z,2.95
2023-05-09T11:28:01.333Z,4.28
2023-05-09T11:30:43.305Z,1.92
2023-05-09T11:33:24.358Z,2.40
2023-05-09T11:36:19.460Z,2.88
2023-05-09T11:38:47.641Z,3.42
2023-05-09T11:41:14.527Z,1.10
2023-05-09T11:43:43.072Z,2.20
2023-05-09T11:46:09.764Z,2.30
2023-05-09T11:48:40.068Z,2.60
2023-05-09T11:51:07.473Z,1.48
2023-05-09T11:53:34.318Z,2.28
2023-05-09T11:56:07.748Z,1.20
2023-05-09T11:58:38.766Z,2.38
2023-05-09T12:01:06.333Z,2.40
2023-05-09T12:03:33.405Z,2.03
2023-05-09T12:06:01.148Z,6.78
2023-05-09T12:08:29.108Z,2.63
2023-05-09T12:11:07.216Z,2.25
2023-05-09T12:13:35.315Z,2.95
2023-05-09T12:16:02.510Z,3.53
2023-05-09T12:18:29.223Z,6.35
2023-05-09T12:20:56.032Z,6.70
2023-05-09T12:23:23.273Z,4.22
2023-05-09T12:25:55.132Z,3.13
2023-05-09T12:28:24.428Z,6.80
2023-05-09T12:30:52.277Z,5.70
2023-05-09T12:33:19.221Z,3.10
2023-05-09T12:38:15.889Z,7.88
2023-05-09T12:40:44.197Z,5.85
2023-05-09T12:43:10.862Z,3.45
2023-05-09T12:45:39.138Z,6.25
2023-05-09T12:48:06.112Z,3.05
2023-05-09T12:50:36.460Z,5.03
2023-05-09T12:53:04.364Z,3.63
2023-05-09T12:55:32.701Z,4.32
2023-05-09T12:58:02.365Z,5.38
2023-05-09T13:00:41.221Z,3.67
2023-05-09T13:03:24.964Z,4.85
2023-05-09T13:06:02.016Z,5.03
2023-05-09T13:08:29.473Z,4.37
2023-05-09T13:11:07.983Z,6.57
2023-05-09T13:13:42.484Z,3.28
2023-05-09T13:16:11.152Z,5.85
2023-05-09T13:18:38.795Z,6.18
2023-05-09T13:21:05.566Z,6.97
2023-05-09T13:23:32.194Z,4.88
2023-05-09T13:25:58.816Z,5.47
2023-05-09T13:28:25.640Z,6.50
2023-05-09T13:30:52.329Z,7.25
2023-05-09T13:33:25.809Z,5.18
2023-05-09T13:35:52.944Z,9.18
2023-05-09T13:38:19.621Z,7.50
2023-05-09T13:40:46.303Z,5.72
2023-05-09T13:43:12.945Z,5.00
2023-05-09T13:45:39.662Z,7.95
2023-05-09T13:48:06.533Z,5.45
2023-05-09T13:50:33.775Z,9.82
2023-05-09T13:53:00.422Z,4.43
2023-05-09T13:55:27.585Z,5.75
2023-05-09T13:57:54.737Z,5.05
2023-05-09T14:00:22.237Z,7.32
2023-05-09T14:02:49.001Z,3.88
2023-05-09T14:05:16.861Z,5.20
2023-05-09T14:07:43.749Z,5.97
2023-05-09T14:10:12.341Z,6.88
2023-05-09T14:12:44.381Z,3.65
2023-05-09T14:15:11.400Z,7.68
2023-05-09T14:17:38.362Z,4.82
2023-05-09T14:20:06.436Z,5.35
2023-05-09T14:22:33.149Z,8.45
2023-05-09T14:24:59.786Z,6.63
2023-05-09T14:27:26.458Z,6.97
2023-05-09T14:29:53.300Z,5.82
2023-05-09T14:32:19.962Z,7.63
2023-05-09T14:34:49.329Z,7.35
2023-05-09T14:37:16.145Z,3.88
2023-05-09T14:39:45.046Z,5.10
2023-05-09T14:42:13.941Z,7.32
2023-05-09T14:44:41.319Z,4.63
2023-05-09T14:47:09.234Z,4.97
2023-05-09T14:49:37.176Z,6.57
2023-05-09T14:52:03.879Z,4.13
2023-05-09T14:54:30.672Z,8.93
2023-05-09T14:56:59.349Z,4.95
2023-05-09T14:59:26.109Z,5.88
2023-05-09T15:01:52.825Z,3.50
2023-05-09T15:04:19.549Z,4.00
2023-05-09T15:06:46.326Z,4.80
2023-05-09T15:09:13.517Z,4.78
2023-05-09T15:11:47.854Z,6.60
2023-05-09T15:14:16.520Z,6.15
2023-05-09T15:16:43.563Z,4.93
2023-05-09T15:19:10.411Z,7.38
2023-05-09T15:21:37.215Z,7.78
2023-05-09T15:24:04.812Z,4.30
2023-05-09T15:26:32.021Z,5.95
2023-05-09T15:28:58.716Z,5.30
2023-05-09T15:31:25.750Z,3.88
2023-05-09T15:33:52.600Z,5.57
2023-05-09T15:36:19.249Z,4.50
2023-05-09T15:38:49.525Z,8.35
2023-05-09T15:41:16.752Z,5.18
2023-05-09T15:46:10.447Z,6.93
2023-05-09T15:51:04.131Z,6.60
2023-05-09T15:53:31.204Z,5.50
2023-05-09T15:58:25.736Z,5.65
2023-05-09T16:00:52.456Z,4.75
2023-05-09T16:03:19.382Z,5.93
2023-05-09T16:05:46.474Z,4.93
2023-05-09T16:08:13.177Z,6.18
2023-05-09T16:10:40.661Z,4.80
2023-05-09T16:13:07.826Z,4.55
2023-05-09T16:15:35.069Z,7.63
2023-05-09T16:18:01.782Z,4.32
2023-05-09T16:20:28.592Z,7.22
2023-05-09T16:22:55.300Z,5.60
2023-05-09T16:25:21.992Z,7.72
2023-05-09T16:27:48.772Z,6.80
2023-05-09T16:30:16.263Z,4.78
2023-05-09T16:32:43.259Z,4.82
2023-05-09T16:35:10.181Z,4.60
2023-05-09T16:37:37.331Z,6.22
2023-05-09T16:40:04.513Z,5.70
2023-05-09T16:42:31.195Z,4.22
2023-05-09T16:44:57.978Z,7.43
2023-05-09T16:47:24.857Z,7.65
2023-05-09T16:52:18.416Z,4.63
2023-05-09T16:54:45.164Z,6.50
2023-05-09T16:57:11.964Z,5.30
2023-05-09T16:59:39.586Z,6.63
2023-05-09T17:02:07.142Z,4.57
2023-05-09T17:04:35.292Z,5.25
2023-05-09T17:07:04.168Z,5.63
2023-05-09T17:09:30.816Z,7.25
2023-05-09T17:11:59.561Z,5.43
2023-05-09T17:14:26.798Z,5.38
2023-05-09T17:16:54.012Z,6.50
2023-05-09T17:19:23.275Z,5.53
2023-05-09T17:21:50.116Z,8.05
2023-05-09T17:24:17.222Z,5.07
2023-05-09T17:29:10.541Z,5.55
2023-05-09T17:31:37.280Z,6.97
2023-05-09T17:34:05.403Z,8.20
2023-05-09T17:36:33.466Z,8.88
2023-05-09T17:39:00.738Z,6.05
2023-05-09T17:41:27.607Z,5.68
2023-05-09T17:43:57.038Z,7.60
2023-05-09T17:46:23.867Z,6.28
2023-05-09T17:48:50.772Z,7.30
2023-05-09T17:51:17.587Z,5.88
2023-05-09T17:53:44.232Z,11.35
2023-05-09T17:56:10.893Z,6.70
2023-05-09T17:58:37.525Z,7.28
2023-05-09T18:01:04.251Z,7.43
2023-05-09T18:03:32.242Z,6.85
2023-05-09T18:06:00.324Z,6.80
2023-05-09T18:08:27.383Z,8.23
2023-05-09T18:10:56.801Z,10.68
2023-05-09T18:13:23.576Z,11.95
2023-05-09T18:15:50.482Z,6.38
2023-05-09T18:18:17.441Z,8.30
2023-05-09T18:20:46.218Z,6.13
2023-05-09T18:23:14.739Z,6.55
2023-05-09T18:25:41.944Z,11.82
2023-05-09T18:28:09.297Z,7.28
2023-05-09T18:33:03.178Z,9.73
2023-05-09T18:35:29.971Z,6.13
2023-05-09T18:37:56.810Z,7.72
2023-05-09T18:40:23.480Z,11.48
2023-05-09T18:42:50.252Z,8.20
2023-05-09T18:45:16.905Z,7.50
2023-05-09T18:47:43.566Z,8.50
2023-05-09T18:50:11.071Z,13.65
2023-05-09T18:52:38.439Z,6.88
2023-05-09T18:57:33.795Z,8.43
2023-05-09T19:00:00.663Z,6.95
2023-05-09T19:02:27.396Z,5.88
2023-05-09T19:04:54.107Z,8.25
2023-05-09T19:07:20.806Z,11.93
2023-05-09T19:09:47.653Z,7.05
2023-05-09T19:12:16.333Z,8.27
2023-05-09T19:14:43.343Z,7.72
2023-05-09T19:17:10.780Z,7.85
2023-05-09T19:19:37.433Z,6.72
2023-05-09T19:22:04.835Z,7.53
2023-05-09T19:24:32.717Z,9.88
2023-05-09T19:26:59.521Z,7.22
2023-05-09T19:29:26.238Z,8.18
2023-05-09T19:31:52.900Z,7.53
2023-05-09T19:34:19.586Z,8.68
2023-05-09T19:36:46.234Z,8.48
2023-05-09T19:39:12.909Z,6.28
2023-05-09T19:41:39.835Z,9.80
2023-05-09T19:44:09.598Z,8.18
2023-05-09T19:46:38.001Z,6.75
2023-05-09T19:49:05.007Z,7.72
2023-05-09T19:51:31.861Z,8.30
2023-05-09T19:53:58.642Z,8.18
2023-05-09T19:56:25.691Z,6.72
2023-05-09T19:58:52.373Z,13.30
2023-05-09T20:01:19.774Z,9.15
2023-05-09T20:03:47.095Z,11.30
2023-05-09T20:06:13.952Z,8.68
2023-05-09T20:08:40.845Z,5.03
2023-05-09T20:11:07.852Z,6.47
2023-05-09T20:13:34.565Z,5.70
2023-05-09T20:16:03.089Z,7.47
2023-05-09T20:18:33.215Z,6.20
2023-05-09T20:21:01.098Z,8.57
2023-05-09T20:23:28.248Z,9.18
2023-05-09T20:25:55.404Z,9.02
2023-05-09T20:28:22.557Z,7.18
2023-05-09T20:30:49.969Z,6.45
2023-05-09T20:33:16.703Z,8.05
2023-05-09T20:35:43.825Z,8.07
2023-05-09T20:38:11.637Z,6.82
2023-05-09T20:40:38.545Z,8.65
2023-05-09T20:43:05.453Z,8.30
2023-05-09T20:45:32.451Z,8.20
2023-05-09T20:47:59.341Z,7.95
2023-05-09T20:50:26.111Z,10.55
2023-05-09T20:52:52.770Z,5.15
2023-05-09T20:55:19.775Z,8.05
2023-05-09T20:57:46.428Z,7.32
2023-05-09T21:00:13.595Z,6.57
2023-05-09T21:05:07.843Z,8.60
2023-05-09T21:10:01.078Z,6.25
2023-05-09T21:12:27.803Z,6.40
2023-05-09T21:14:54.440Z,7.57
2023-05-09T21:17:21.186Z,8.18
2023-05-09T21:19:51.420Z,8.68
2023-05-09T21:22:18.252Z,7.40
2023-05-09T21:24:44.973Z,10.10
2023-05-09T21:27:11.654Z,6.03
2023-05-09T21:29:38.379Z,12.35
2023-05-09T21:32:05.431Z,8.40
2023-05-09T21:34:32.081Z,7.53
2023-05-09T21:36:58.802Z,9.48
2023-05-09T21:39:25.655Z,11.80
2023-05-09T21:41:52.325Z,7.90
2023-05-09T21:44:18.962Z,10.77
2023-05-09T21:46:46.210Z,8.90
2023-05-09T21:49:16.587Z,12.60
2023-05-09T21:51:43.518Z,8.45
2023-05-09T21:54:10.952Z,9.48
2023-05-09T21:56:38.097Z,12.18
2023-05-09T21:59:04.842Z,11.25
2023-05-09T22:01:31.611Z,9.98
2023-05-09T22:03:58.705Z,11.75
2023-05-09T22:06:25.567Z,11.35
2023-05-09T22:08:52.242Z,11.43
2023-05-09T22:11:18.943Z,15.95
2023-05-09T22:17:45.451Z,10.55
2023-05-09T22:20:12.556Z,10.38
2023-05-09T22:22:39.257Z,14.05
2023-05-09T22:25:06.319Z,18.00
2023-05-09T22:27:33.025Z,12.27
2023-05-09T22:29:59.724Z,12.40
2023-05-09T22:32:26.490Z,13.85
2023-05-09T22:34:54.145Z,8.82
2023-05-09T22:37:21.528Z,8.07
2023-05-09T22:39:48.333Z,9.80
2023-05-09T22:42:15.194Z,7.28
2023-05-09T22:44:42.327Z,7.80
2023-05-09T22:47:09.530Z,8.48
2023-05-09T22:49:36.215Z,8.27
2023-05-09T22:52:03.172Z,6.40
2023-05-09T22:54:29.917Z,6.72
2023-05-09T22:56:56.595Z,7.45
2023-05-09T22:59:23.648Z,5.20
2023-05-09T23:01:50.642Z,3.72
2023-05-09T23:04:17.363Z,3.90
2023-05-09T23:06:44.178Z,3.33
2023-05-09T23:09:10.900Z,2.38
2023-05-09T23:11:37.843Z,2.70
2023-05-09T23:14:04.585Z,0.95
2023-05-09T23:16:31.518Z,1.05
2023-05-09T23:18:58.219Z,3.30
2023-05-09T23:21:24.921Z,2.25
2023-05-09T23:23:51.580Z,0.70
2023-05-09T23:26:18.346Z,0.22
2023-05-09T23:28:45.199Z,1.67
2023-05-09T23:31:11.959Z,0.43
2023-05-09T23:33:38.921Z,0.35
2023-05-09T23:36:05.935Z,0.30
2023-05-09T23:38:32.614Z,1.08
2023-05-09T23:41:00.035Z,0.70
2023-05-09T23:43:26.798Z,0.20
2023-05-09T23:45:53.864Z,0.20
2023-05-09T23:48:20.580Z,0.25
2023-05-09T23:50:47.269Z,0.10
2023-05-09T23:53:13.943Z,1.33
2023-05-09T23:55:40.650Z,0.50
2023-05-09T23:58:07.415Z,0.70
